createdAt,value
2022-12-26T00:02:25.304Z,7.90
2022-12-26T00:04:53.620Z,8.50
2022-12-26T00:07:20.544Z,10.10
2022-12-26T00:09:46.975Z,10.10
2022-12-26T00:12:14.236Z,8.83
2022-12-26T00:14:40.601Z,9.20
2022-12-26T00:17:07.619Z,10.47
2022-12-26T00:19:33.964Z,8.73
2022-12-26T00:22:00.457Z,8.70
2022-12-26T00:24:26.808Z,9.67
2022-12-26T00:26:53.186Z,9.00
2022-12-26T00:29:19.509Z,9.13
2022-12-26T00:31:46.862Z,9.10
2022-12-26T00:34:13.341Z,11.47
2022-12-26T00:36:39.793Z,10.10
2022-12-26T00:39:06.157Z,9.47
2022-12-26T00:41:33.050Z,10.13
2022-12-26T00:43:59.462Z,10.23
2022-12-26T00:46:27.392Z,9.87
2022-12-26T00:48:54.404Z,10.30
2022-12-26T00:51:21.234Z,9.20
2022-12-26T00:53:47.599Z,9.77
2022-12-26T00:56:14.141Z,10.40
2022-12-26T00:58:41.995Z,12.37
2022-12-26T01:01:15.272Z,10.43
2022-12-26T01:03:42.865Z,10.03
2022-12-26T01:06:09.239Z,10.20
2022-12-26T01:08:35.706Z,10.83
2022-12-26T01:11:05.131Z,10.10
2022-12-26T01:13:31.622Z,9.93
2022-12-26T01:15:58.306Z,10.60
2022-12-26T01:18:24.896Z,10.77
2022-12-26T01:20:51.560Z,10.93
2022-12-26T01:23:18.059Z,11.63
2022-12-26T01:26:17.200Z,11.43
2022-12-26T01:28:31.214Z,10.37
2022-12-26T01:31:01.885Z,10.10
2022-12-26T01:33:28.221Z,12.23
2022-12-26T01:35:54.600Z,11.60
2022-12-26T01:38:21.830Z,10.80
2022-12-26T01:40:49.529Z,10.80
2022-12-26T01:43:16.815Z,10.90
2022-12-26T01:45:48.915Z,11.90
2022-12-26T01:48:18.583Z,10.87
2022-12-26T01:50:59.426Z,11.13
2022-12-26T01:53:31.501Z,9.67
2022-12-26T01:56:10.068Z,11.60
2022-12-26T01:58:41.380Z,11.13
2022-12-26T02:01:09.766Z,12.00
2022-12-26T02:03:59.957Z,12.53
2022-12-26T02:06:26.804Z,11.83
2022-12-26T02:08:54.097Z,11.60
2022-12-26T02:11:27.008Z,11.90
2022-12-26T02:13:54.142Z,12.07
2022-12-26T02:16:20.736Z,12.07
2022-12-26T02:18:47.153Z,11.30
2022-12-26T02:21:31.916Z,10.83
2022-12-26T02:24:16.604Z,11.20
2022-12-26T02:27:01.261Z,12.50
2022-12-26T02:29:46.451Z,10.97
2022-12-26T02:32:29.583Z,10.77
2022-12-26T02:35:30.256Z,10.30
2022-12-26T02:38:12.917Z,10.73
2022-12-26T02:40:58.095Z,9.10
2022-12-26T02:44:22.860Z,9.90
2022-12-26T02:47:04.821Z,10.43
2022-12-26T02:50:01.755Z,10.60
2022-12-26T02:53:06.192Z,9.07
2022-12-26T02:55:53.138Z,10.07
2022-12-26T02:58:43.821Z,12.30
2022-12-26T03:01:41.879Z,10.50
2022-12-26T03:04:37.769Z,10.67
2022-12-26T03:07:28.679Z,10.50
2022-12-26T03:10:16.896Z,11.03
2022-12-26T03:13:09.745Z,12.17
2022-12-26T03:16:00.031Z,10.77
2022-12-26T03:18:58.521Z,10.70
2022-12-26T03:21:20.068Z,9.10
2022-12-26T03:23:48.771Z,10.77
2022-12-26T03:26:37.847Z,9.10
2022-12-26T03:29:22.959Z,9.17
2022-12-26T03:31:49.307Z,10.10
2022-12-26T03:34:18.557Z,9.43
2022-12-26T03:37:07.055Z,10.60
2022-12-26T03:40:12.505Z,10.03
2022-12-26T03:43:26.930Z,9.60
2022-12-26T03:46:33.070Z,10.50
2022-12-26T03:49:35.072Z,10.77
2022-12-26T03:52:42.303Z,11.00
2022-12-26T03:56:00.941Z,11.77
2022-12-26T03:59:09.942Z,10.70
2022-12-26T04:01:57.059Z,10.30
2022-12-26T04:04:47.608Z,11.30
2022-12-26T04:07:56.138Z,12.20
2022-12-26T04:11:07.966Z,10.60
2022-12-26T04:14:15.718Z,11.10
2022-12-26T04:17:15.550Z,11.03
2022-12-26T04:19:51.800Z,10.97
2022-12-26T04:22:55.209Z,12.27
2022-12-26T04:25:49.964Z,11.00
2022-12-26T04:28:41.140Z,10.50
2022-12-26T04:31:46.640Z,11.17
2022-12-26T04:34:45.488Z,11.63
2022-12-26T04:37:40.649Z,9.93
2022-12-26T04:40:34.233Z,9.90
2022-12-26T04:43:46.866Z,11.27
2022-12-26T04:46:08.201Z,10.07
2022-12-26T04:49:02.298Z,11.40
2022-12-26T04:51:28.995Z,11.73
2022-12-26T04:53:55.522Z,10.67
2022-12-26T04:56:21.888Z,9.83
2022-12-26T04:58:48.368Z,10.60
2022-12-26T05:01:41.148Z,12.40
2022-12-26T05:04:31.519Z,12.00
2022-12-26T05:07:17.524Z,10.93
2022-12-26T05:09:44.177Z,12.90
2022-12-26T05:12:10.512Z,12.77
2022-12-26T05:14:37.186Z,11.57
2022-12-26T05:17:24.112Z,11.40
2022-12-26T05:20:09.648Z,12.57
2022-12-26T05:22:58.174Z,12.10
2022-12-26T05:25:49.913Z,13.40
2022-12-26T05:28:36.166Z,11.97
2022-12-26T05:31:03.588Z,13.97
2022-12-26T05:33:49.078Z,13.53
2022-12-26T05:36:17.444Z,12.20
2022-12-26T05:38:43.924Z,12.17
2022-12-26T05:41:10.332Z,15.17
2022-12-26T05:43:36.704Z,13.70
2022-12-26T05:46:03.445Z,14.40
2022-12-26T05:48:29.793Z,14.67
2022-12-26T05:51:00.583Z,13.97
2022-12-26T05:53:27.560Z,14.37
2022-12-26T05:55:54.284Z,15.60
2022-12-26T05:58:21.215Z,14.67
2022-12-26T06:00:47.679Z,13.63
2022-12-26T06:03:14.149Z,15.33
2022-12-26T06:05:40.818Z,15.50
2022-12-26T06:08:07.152Z,15.57
2022-12-26T06:10:33.516Z,14.47
2022-12-26T06:13:00.121Z,15.40
2022-12-26T06:15:26.713Z,14.90
2022-12-26T06:17:55.432Z,14.70
2022-12-26T06:20:21.904Z,16.33
2022-12-26T06:22:48.233Z,15.07
2022-12-26T06:25:14.857Z,15.53
2022-12-26T06:27:43.033Z,16.03
2022-12-26T06:30:09.807Z,15.70
2022-12-26T06:32:36.201Z,16.03
2022-12-26T06:35:02.566Z,15.03
2022-12-26T06:37:29.133Z,15.33
2022-12-26T06:39:55.458Z,12.90
2022-12-26T06:42:22.544Z,14.40
2022-12-26T06:44:48.869Z,14.53
2022-12-26T06:47:15.424Z,15.00
2022-12-26T06:49:41.783Z,13.30
2022-12-26T06:52:08.488Z,15.10
2022-12-26T06:54:35.240Z,13.87
2022-12-26T06:57:01.782Z,15.03
2022-12-26T06:59:28.202Z,13.17
2022-12-26T07:01:54.821Z,14.10
2022-12-26T07:04:21.278Z,13.60
2022-12-26T07:06:47.768Z,12.60
2022-12-26T07:09:16.876Z,12.97
2022-12-26T07:11:46.519Z,12.90
2022-12-26T07:14:13.957Z,12.57
2022-12-26T07:16:41.974Z,13.00
2022-12-26T07:19:11.224Z,13.40
2022-12-26T07:21:41.105Z,12.77
2022-12-26T07:24:14.665Z,13.30
2022-12-26T07:26:41.059Z,14.67
2022-12-26T07:29:07.428Z,15.50
2022-12-26T07:31:33.965Z,17.10
2022-12-26T07:34:00.361Z,15.37
2022-12-26T07:36:27.132Z,16.33
2022-12-26T07:38:53.598Z,17.00
2022-12-26T07:41:38.707Z,15.30
2022-12-26T07:44:06.063Z,16.20
2022-12-26T07:46:33.060Z,15.60
2022-12-26T07:48:59.643Z,16.93
2022-12-26T07:51:26.590Z,16.50
2022-12-26T07:53:52.920Z,17.57
2022-12-26T07:56:19.540Z,16.23
2022-12-26T07:58:50.143Z,18.47
2022-12-26T08:01:16.624Z,15.77
2022-12-26T08:03:43.188Z,18.17
2022-12-26T08:06:11.062Z,16.47
2022-12-26T08:08:38.111Z,17.80
2022-12-26T08:11:07.575Z,16.90
2022-12-26T08:13:34.801Z,17.60
2022-12-26T08:16:06.264Z,17.27
2022-12-26T08:18:32.950Z,16.73
2022-12-26T08:20:59.479Z,18.37
2022-12-26T08:23:25.966Z,18.27
2022-12-26T08:25:52.498Z,18.10
2022-12-26T08:28:18.857Z,18.67
2022-12-26T08:30:46.575Z,19.00
2022-12-26T08:33:13.266Z,22.40
2022-12-26T08:35:40.205Z,20.03
2022-12-26T08:38:06.853Z,18.97
2022-12-26T08:40:43.208Z,19.67
2022-12-26T08:46:09.098Z,19.70
2022-12-26T08:48:36.972Z,20.10
2022-12-26T08:51:07.325Z,18.40
2022-12-26T08:53:35.768Z,22.40
2022-12-26T08:56:07.068Z,18.83
2022-12-26T08:58:33.981Z,19.63
2022-12-26T09:01:12.643Z,18.40
2022-12-26T09:03:39.690Z,18.60
2022-12-26T09:06:06.830Z,19.40
2022-12-26T09:08:34.995Z,19.03
2022-12-26T09:11:10.123Z,18.13
2022-12-26T09:13:36.926Z,17.67
2022-12-26T09:16:18.477Z,19.30
2022-12-26T09:18:45.983Z,19.27
2022-12-26T09:21:13.752Z,19.03
2022-12-26T09:23:40.993Z,17.93
2022-12-26T09:26:10.529Z,17.67
2022-12-26T09:28:37.407Z,18.50
2022-12-26T09:31:07.157Z,18.40
2022-12-26T09:33:36.179Z,19.23
2022-12-26T09:36:12.539Z,18.03
2022-12-26T09:38:40.809Z,19.67
2022-12-26T09:41:22.666Z,18.17
2022-12-26T09:44:07.663Z,18.60
2022-12-26T09:46:52.073Z,17.20
2022-12-26T09:49:27.900Z,17.40
2022-12-26T09:51:59.081Z,17.27
2022-12-26T09:54:37.836Z,17.80
2022-12-26T09:57:15.068Z,16.80
2022-12-26T09:59:49.722Z,15.87
2022-12-26T10:02:19.588Z,17.30
2022-12-26T10:04:46.114Z,17.23
2022-12-26T10:07:18.854Z,14.80
2022-12-26T10:09:59.983Z,16.00
2022-12-26T10:12:37.652Z,15.30
2022-12-26T10:15:17.786Z,15.33
2022-12-26T10:18:16.097Z,15.33
2022-12-26T10:20:48.629Z,15.73
2022-12-26T10:23:28.817Z,14.97
2022-12-26T10:26:14.019Z,15.03
2022-12-26T10:28:56.156Z,14.90
2022-12-26T10:31:30.184Z,14.17
2022-12-26T10:34:00.532Z,13.77
2022-12-26T10:36:37.224Z,15.00
2022-12-26T10:39:13.330Z,14.10
2022-12-26T10:41:44.943Z,14.20
2022-12-26T10:44:12.704Z,15.37
2022-12-26T10:46:42.873Z,14.27
2022-12-26T10:49:15.778Z,14.10
2022-12-26T10:51:42.308Z,12.50
2022-12-26T10:54:14.680Z,12.97
2022-12-26T10:56:41.321Z,15.23
2022-12-26T10:59:14.501Z,13.30
2022-12-26T11:01:47.394Z,14.10
2022-12-26T11:05:09.931Z,13.50
2022-12-26T11:07:12.882Z,13.43
2022-12-26T11:09:42.640Z,13.10
2022-12-26T11:12:27.981Z,12.97
2022-12-26T11:15:04.214Z,12.40
2022-12-26T11:17:40.281Z,11.60
2022-12-26T11:20:28.429Z,14.47
2022-12-26T11:22:54.891Z,14.23
2022-12-26T11:25:27.673Z,12.93
2022-12-26T11:27:59.251Z,11.60
2022-12-26T11:30:34.306Z,11.73
2022-12-26T11:33:14.492Z,13.43
2022-12-26T11:35:52.521Z,13.00
2022-12-26T11:38:44.077Z,10.90
2022-12-26T11:41:32.259Z,11.70
2022-12-26T11:44:23.765Z,12.10
2022-12-26T11:47:13.671Z,13.30
2022-12-26T11:49:57.905Z,11.00
2022-12-26T11:52:39.719Z,11.70
2022-12-26T11:55:29.488Z,11.20
2022-12-26T11:58:06.651Z,9.60
2022-12-26T12:00:36.092Z,10.30
2022-12-26T12:03:09.066Z,10.90
2022-12-26T12:05:41.363Z,10.70
2022-12-26T12:08:16.819Z,10.80
2022-12-26T12:11:04.233Z,10.60
2022-12-26T12:13:52.386Z,10.63
2022-12-26T12:16:43.123Z,10.50
2022-12-26T12:19:40.316Z,10.03
2022-12-26T12:22:28.707Z,9.77
2022-12-26T12:25:17.441Z,10.03
2022-12-26T12:27:56.764Z,10.97
2022-12-26T12:30:30.515Z,9.00
2022-12-26T12:33:26.991Z,8.90
2022-12-26T12:35:59.202Z,9.10
2022-12-26T12:38:34.851Z,8.90
2022-12-26T12:41:09.107Z,9.83
2022-12-26T12:43:51.390Z,9.40
2022-12-26T12:46:29.788Z,8.57
2022-12-26T12:49:18.646Z,8.83
2022-12-26T12:52:20.385Z,7.97
2022-12-26T12:55:04.911Z,7.93
2022-12-26T12:57:43.151Z,5.70
2022-12-26T13:00:17.582Z,6.80
2022-12-26T13:02:46.564Z,4.97
2022-12-26T13:05:50.618Z,4.10
2022-12-26T13:08:23.840Z,4.43
2022-12-26T13:10:57.904Z,3.90
2022-12-26T13:13:33.681Z,3.50
2022-12-26T13:16:10.160Z,3.00
2022-12-26T13:18:41.403Z,2.30
2022-12-26T13:21:11.442Z,2.03
2022-12-26T13:24:26.145Z,1.97
2022-12-26T13:27:05.580Z,1.73
2022-12-26T13:29:31.997Z,1.30
2022-12-26T13:32:00.383Z,1.97
2022-12-26T13:34:27.087Z,1.47
2022-12-26T13:36:55.834Z,1.63
2022-12-26T13:39:31.251Z,1.60
2022-12-26T13:42:36.758Z,1.47
2022-12-26T13:45:40.294Z,1.27
2022-12-26T13:48:15.865Z,1.20
2022-12-26T13:50:56.155Z,1.70
2022-12-26T13:53:26.143Z,1.20
2022-12-26T13:56:02.319Z,1.50
2022-12-26T13:58:31.933Z,1.73
2022-12-26T14:01:43.948Z,1.60
2022-12-26T14:04:31.761Z,1.60
2022-12-26T14:07:00.992Z,1.90
2022-12-26T14:09:45.714Z,1.20
2022-12-26T14:12:22.908Z,1.60
2022-12-26T14:15:08.857Z,1.37
2022-12-26T14:18:11.249Z,1.77
2022-12-26T14:20:57.555Z,2.23
2022-12-26T14:23:37.423Z,2.17
2022-12-26T14:26:22.686Z,3.33
2022-12-26T14:29:10.713Z,1.80
2022-12-26T14:31:48.089Z,1.73
2022-12-26T14:34:42.591Z,1.90
2022-12-26T14:37:22.348Z,1.67
2022-12-26T14:40:26.162Z,1.90
2022-12-26T14:43:16.768Z,1.90
2022-12-26T14:45:50.756Z,1.87
2022-12-26T14:48:17.083Z,1.90
2022-12-26T14:50:45.180Z,1.40
2022-12-26T14:53:23.338Z,1.93
2022-12-26T14:55:51.856Z,1.73
2022-12-26T14:58:26.392Z,2.47
2022-12-26T15:00:53.677Z,2.73
2022-12-26T15:03:47.493Z,2.47
2022-12-26T15:06:36.049Z,1.50
2022-12-26T15:09:17.716Z,2.07
2022-12-26T15:12:31.234Z,2.53
2022-12-26T15:15:28.280Z,2.70
2022-12-26T15:18:13.537Z,2.80
2022-12-26T15:21:09.113Z,2.40
2022-12-26T15:23:56.309Z,2.50
2022-12-26T15:27:08.108Z,2.33
2022-12-26T15:29:52.617Z,2.67
2022-12-26T15:32:50.289Z,3.17
2022-12-26T15:35:35.505Z,2.23
2022-12-26T15:38:24.946Z,2.53
2022-12-26T15:41:09.982Z,3.10
2022-12-26T15:43:47.429Z,2.30
2022-12-26T15:46:32.578Z,3.23
2022-12-26T15:49:22.846Z,2.40
2022-12-26T15:51:56.321Z,2.60
2022-12-26T15:55:06.738Z,3.50
2022-12-26T15:57:50.302Z,2.13
2022-12-26T16:00:29.544Z,2.80
2022-12-26T16:03:04.905Z,2.40
2022-12-26T16:05:43.546Z,2.87
2022-12-26T16:08:45.655Z,2.70
2022-12-26T16:11:21.246Z,3.00
2022-12-26T16:14:02.666Z,3.57
2022-12-26T16:16:35.549Z,3.10
2022-12-26T16:19:23.667Z,2.57
2022-12-26T16:22:14.177Z,3.37
2022-12-26T16:24:43.213Z,3.33
2022-12-26T16:27:16.036Z,3.07
2022-12-26T16:29:49.214Z,3.63
2022-12-26T16:32:19.868Z,3.00
2022-12-26T16:34:47.232Z,3.27
2022-12-26T16:37:24.028Z,2.53
2022-12-26T16:40:18.081Z,2.77
2022-12-26T16:42:55.459Z,3.30
2022-12-26T16:45:23.579Z,4.00
2022-12-26T16:47:50.150Z,3.00
2022-12-26T16:50:20.748Z,4.00
2022-12-26T16:52:47.277Z,2.60
2022-12-26T16:55:26.339Z,3.00
2022-12-26T16:57:56.745Z,2.37
2022-12-26T17:00:24.242Z,2.03
2022-12-26T17:02:55.955Z,2.80
2022-12-26T17:05:27.278Z,2.23
2022-12-26T17:07:55.823Z,2.50
2022-12-26T17:10:28.690Z,2.53
2022-12-26T17:12:58.986Z,2.80
2022-12-26T17:15:29.363Z,2.90
2022-12-26T17:18:50.790Z,2.40
2022-12-26T17:21:24.937Z,2.70
2022-12-26T17:24:09.700Z,2.93
2022-12-26T17:26:37.907Z,2.30
2022-12-26T17:29:04.744Z,1.90
2022-12-26T17:31:41.534Z,2.50
2022-12-26T17:34:28.178Z,3.10
2022-12-26T17:39:41.236Z,2.50
2022-12-26T17:42:07.871Z,2.50
2022-12-26T17:44:42.882Z,2.57
2022-12-26T17:47:22.862Z,3.40
2022-12-26T17:49:51.134Z,3.90
2022-12-26T17:52:20.769Z,3.30
2022-12-26T17:54:49.050Z,2.33
2022-12-26T17:57:18.425Z,3.20
2022-12-26T17:59:44.949Z,3.70
2022-12-26T18:02:11.438Z,2.90
2022-12-26T18:04:37.874Z,2.27
2022-12-26T18:07:05.495Z,3.03
2022-12-26T18:09:32.193Z,4.40
2022-12-26T18:11:58.560Z,3.00
2022-12-26T18:14:24.890Z,2.40
2022-12-26T18:16:52.083Z,3.43
2022-12-26T18:19:19.910Z,3.77
2022-12-26T18:21:47.051Z,2.33
2022-12-26T18:24:13.462Z,2.70
2022-12-26T18:26:40.301Z,2.30
2022-12-26T18:29:07.162Z,3.67
2022-12-26T18:31:33.563Z,3.47
2022-12-26T18:33:59.928Z,3.47
2022-12-26T18:36:33.159Z,4.13
2022-12-26T18:38:59.767Z,3.20
2022-12-26T18:41:26.753Z,3.73
2022-12-26T18:43:53.172Z,3.13
2022-12-26T18:46:21.984Z,3.40
2022-12-26T18:48:48.822Z,3.37
2022-12-26T18:51:15.587Z,3.70
2022-12-26T18:53:42.004Z,4.43
2022-12-26T18:56:18.484Z,4.50
2022-12-26T18:58:46.298Z,3.60
2022-12-26T19:01:14.765Z,4.70
2022-12-26T19:03:42.501Z,4.17
2022-12-26T19:06:26.729Z,4.47
2022-12-26T19:08:53.324Z,4.70
2022-12-26T19:11:19.764Z,4.10
2022-12-26T19:13:46.233Z,3.50
2022-12-26T19:16:12.886Z,3.50
2022-12-26T19:18:39.285Z,3.17
2022-12-26T19:21:11.099Z,3.40
2022-12-26T19:23:37.472Z,3.37
2022-12-26T19:26:11.832Z,2.50
2022-12-26T19:28:39.073Z,2.90
2022-12-26T19:31:10.380Z,3.67
2022-12-26T19:33:37.175Z,3.73
2022-12-26T19:36:04.688Z,5.97
2022-12-26T19:38:31.051Z,2.90
2022-12-26T19:41:05.462Z,7.40
2022-12-26T19:43:32.002Z,4.47
2022-12-26T19:46:03.447Z,2.73
2022-12-26T19:48:31.393Z,2.80
2022-12-26T19:51:09.658Z,3.50
2022-12-26T19:53:37.488Z,4.63
2022-12-26T19:56:11.563Z,3.30
2022-12-26T19:58:38.277Z,3.33
2022-12-26T20:01:09.600Z,4.47
2022-12-26T20:03:36.681Z,3.87
2022-12-26T20:06:20.667Z,4.90
2022-12-26T20:08:48.970Z,3.53
2022-12-26T20:11:24.735Z,2.50
2022-12-26T20:13:51.589Z,2.60
2022-12-26T20:16:54.627Z,3.13
2022-12-26T20:19:08.405Z,4.20
2022-12-26T20:21:34.996Z,4.43
2022-12-26T20:24:02.189Z,3.40
2022-12-26T20:26:29.531Z,6.30
2022-12-26T20:28:58.563Z,4.53
2022-12-26T20:31:25.132Z,3.40
2022-12-26T20:33:52.247Z,2.90
2022-12-26T20:36:24.085Z,3.20
2022-12-26T20:38:52.003Z,3.10
2022-12-26T20:41:18.690Z,2.37
2022-12-26T20:43:45.532Z,2.03
2022-12-26T20:46:17.831Z,4.43
2022-12-26T20:48:44.639Z,3.13
2022-12-26T20:51:18.787Z,2.40
2022-12-26T20:53:45.521Z,3.30
2022-12-26T20:56:12.380Z,5.50
2022-12-26T20:58:38.806Z,7.87
2022-12-26T21:01:12.597Z,6.70
2022-12-26T21:03:39.618Z,3.37
2022-12-26T21:06:08.076Z,3.47
2022-12-26T21:08:36.905Z,3.57
2022-12-26T21:11:12.838Z,3.67
2022-12-26T21:13:40.603Z,4.77
2022-12-26T21:16:22.637Z,4.30
2022-12-26T21:18:49.312Z,3.00
2022-12-26T21:21:19.762Z,3.20
2022-12-26T21:23:47.165Z,3.20
2022-12-26T21:26:14.357Z,4.07
2022-12-26T21:28:41.268Z,4.43
2022-12-26T21:31:09.703Z,5.33
2022-12-26T21:33:44.047Z,9.70
2022-12-26T21:36:13.050Z,3.30
2022-12-26T21:38:40.120Z,3.00
2022-12-26T21:41:09.185Z,3.10
2022-12-26T21:43:35.756Z,2.80
2022-12-26T21:46:07.594Z,3.13
2022-12-26T21:48:34.190Z,2.37
2022-12-26T21:51:00.568Z,9.90
2022-12-26T21:53:26.917Z,2.63
2022-12-26T21:55:53.547Z,4.00
2022-12-26T21:58:19.911Z,3.30
2022-12-26T22:00:46.284Z,2.87
2022-12-26T22:03:31.328Z,3.87
2022-12-26T22:05:58.064Z,2.50
2022-12-26T22:08:24.453Z,2.47
2022-12-26T22:11:09.812Z,2.33
2022-12-26T22:13:41.678Z,2.70
2022-12-26T22:16:11.033Z,2.77
2022-12-26T22:18:46.773Z,2.50
2022-12-26T22:21:21.029Z,2.77
2022-12-26T22:23:50.354Z,2.47
2022-12-26T22:26:17.307Z,3.00
2022-12-26T22:28:44.311Z,2.67
2022-12-26T22:31:22.730Z,2.53
2022-12-26T22:33:55.029Z,3.00
2022-12-26T22:36:21.560Z,2.20
2022-12-26T22:38:47.881Z,2.67
2022-12-26T22:41:14.396Z,2.90
2022-12-26T22:43:43.053Z,2.60
2022-12-26T22:46:10.176Z,2.53
2022-12-26T22:48:36.707Z,3.50
2022-12-26T22:51:03.292Z,2.63
2022-12-26T22:53:30.336Z,2.70
2022-12-26T22:55:59.454Z,1.90
2022-12-26T22:58:26.596Z,2.60
2022-12-26T23:00:53.133Z,4.30
2022-12-26T23:03:20.290Z,2.90
2022-12-26T23:05:47.680Z,2.13
2022-12-26T23:08:18.677Z,2.30
2022-12-26T23:10:46.265Z,2.47
2022-12-26T23:13:14.117Z,1.70
2022-12-26T23:16:14.073Z,2.90
2022-12-26T23:19:16.291Z,2.10
2022-12-26T23:21:46.208Z,2.00
2022-12-26T23:24:14.494Z,2.60
2022-12-26T23:26:42.961Z,2.40
2022-12-26T23:29:30.492Z,2.57
2022-12-26T23:31:57.142Z,2.30
2022-12-26T23:34:23.746Z,2.40
2022-12-26T23:36:50.277Z,2.20
2022-12-26T23:39:16.648Z,2.40
2022-12-26T23:41:43.035Z,2.80
2022-12-26T23:44:09.622Z,2.27
2022-12-26T23:46:36.900Z,2.07
2022-12-26T23:49:03.282Z,2.53
2022-12-26T23:51:29.664Z,2.10
2022-12-26T23:53:56.036Z,2.53
2022-12-26T23:56:22.517Z,2.23
2022-12-26T23:58:49.203Z,2.93
